Time;durP1;ratioP1;P1;durP2;ratioP2;P2;SDS_P1;SDS_P2;PMS_P1;PMS_P2;Temp;Humidity;BMP_temperature;BMP_pressure;BME280_temperature;BME280_humidity;BME280_pressure;Samples;Min_cycle;Max_cycle;Signal;HPM_P1;HPM_P2
2022/09/22 00:01:10;;;;;;;8.88;4.28;;;7.60;99.90;;;;;;5006685;28;20041;-76
2022/09/22 00:03:38;;;;;;;7.90;3.92;;;7.60;99.90;;;;;;5009935;28;20037;-75
2022/09/22 00:06:07;;;;;;;7.38;4.18;;;7.60;99.90;;;;;;5006436;28;20513;-75
2022/09/22 00:08:34;;;;;;;9.65;5.05;;;7.60;99.90;;;;;;5007176;28;20030;-76
2022/09/22 00:11:21;;;;;;;10.73;4.43;;;7.60;99.90;;;;;;5007713;28;20037;-76
2022/09/22 00:13:52;;;;;;;10.93;5.07;;;7.60;99.90;;;;;;5006488;28;20041;-76
2022/09/22 00:16:22;;;;;;;9.88;5.25;;;7.60;99.90;;;;;;5003317;28;20021;-76
2022/09/22 00:18:47;;;;;;;7.97;4.45;;;7.50;99.90;;;;;;5007355;28;20040;-76
2022/09/22 00:21:17;;;;;;;13.00;5.30;;;7.50;99.90;;;;;;5008398;28;20017;-75
2022/09/22 00:23:43;;;;;;;8.15;4.75;;;7.50;99.90;;;;;;5002258;28;20029;-76
2022/09/22 00:26:12;;;;;;;12.18;5.70;;;7.50;99.90;;;;;;5006199;28;20512;-76
2022/09/22 00:28:38;;;;;;;10.10;5.80;;;7.50;99.90;;;;;;5004069;28;20026;-76
2022/09/22 00:31:06;;;;;;;8.32;5.30;;;7.40;99.90;;;;;;5003126;28;20536;-76
2022/09/22 00:33:32;;;;;;;10.40;4.68;;;7.50;99.90;;;;;;5003993;28;20224;-76
2022/09/22 00:35:59;;;;;;;9.95;4.28;;;7.40;99.90;;;;;;5007659;28;20449;-76
2022/09/22 00:38:25;;;;;;;8.38;3.97;;;7.40;99.90;;;;;;5007449;28;20021;-76
2022/09/22 00:40:50;;;;;;;8.15;4.25;;;7.40;99.90;;;;;;5005283;28;20026;-75
2022/09/22 00:43:23;;;;;;;10.88;4.88;;;7.30;99.90;;;;;;5000767;28;20033;-75
2022/09/22 00:45:55;;;;;;;10.48;5.00;;;7.40;99.90;;;;;;5010579;28;20049;-75
2022/09/22 00:48:23;;;;;;;8.13;4.20;;;7.30;99.90;;;;;;5007649;28;20045;-75
2022/09/22 00:50:52;;;;;;;6.97;4.45;;;7.30;99.90;;;;;;5006236;28;20062;-76
2022/09/22 00:53:21;;;;;;;9.02;4.22;;;7.30;99.90;;;;;;5008285;28;20038;-76
2022/09/22 00:55:59;;;;;;;8.93;4.00;;;7.30;99.90;;;;;;5009849;28;20537;-75
2022/09/22 00:58:32;;;;;;;8.35;3.10;;;7.30;99.90;;;;;;5007535;28;20030;-76
2022/09/22 01:00:58;;;;;;;5.43;3.97;;;7.30;99.90;;;;;;5006095;28;20030;-75
2022/09/22 01:03:25;;;;;;;7.65;4.25;;;7.30;99.90;;;;;;5009759;28;20018;-76
2022/09/22 01:05:54;;;;;;;11.52;4.75;;;7.20;99.90;;;;;;5010733;28;20076;-75
2022/09/22 01:08:23;;;;;;;13.05;5.70;;;7.20;99.90;;;;;;5002754;28;20037;-76
2022/09/22 01:10:49;;;;;;;8.88;5.68;;;7.20;99.90;;;;;;5016008;28;20026;-76
2022/09/22 01:13:31;;;;;;;6.65;4.47;;;7.20;99.90;;;;;;5005470;28;20477;-76
2022/09/22 01:16:39;;;;;;;10.27;4.97;;;7.20;99.90;;;;;;5009671;28;20371;-75
2022/09/22 01:19:33;;;;;;;7.88;5.43;;;7.20;99.90;;;;;;4983612;28;20034;-75
2022/09/22 01:21:59;;;;;;;9.32;5.82;;;7.20;99.90;;;;;;5005850;28;20038;-76
2022/09/22 01:25:05;;;;;;;11.98;5.63;;;7.20;99.90;;;;;;5009093;28;20045;-76
2022/09/22 01:27:46;;;;;;;9.45;5.95;;;7.20;99.90;;;;;;5012698;28;20100;-76
2022/09/22 01:30:17;;;;;;;9.80;5.13;;;7.20;99.90;;;;;;5005265;28;20074;-76
2022/09/22 01:32:46;;;;;;;9.60;5.43;;;7.20;99.90;;;;;;5003846;28;20101;-76
2022/09/22 01:35:30;;;;;;;8.32;5.75;;;7.20;99.90;;;;;;5005761;28;20618;-76
2022/09/22 01:38:17;;;;;;;12.80;6.20;;;7.10;99.90;;;;;;5000883;28;20030;-76
2022/09/22 01:41:01;;;;;;;12.85;5.55;;;7.10;99.90;;;;;;5009210;28;20033;-76
2022/09/22 01:43:31;;;;;;;8.40;5.32;;;7.10;99.90;;;;;;5009813;28;20511;-76
2022/09/22 01:46:00;;;;;;;10.02;6.53;;;7.10;99.90;;;;;;5010630;28;20615;-76
2022/09/22 01:48:30;;;;;;;8.45;5.57;;;7.00;99.90;;;;;;5012734;28;20044;-76
2022/09/22 01:51:17;;;;;;;8.52;4.85;;;7.10;99.90;;;;;;5009363;28;20516;-76
2022/09/22 01:53:58;;;;;;;10.80;5.40;;;7.00;99.90;;;;;;5008714;28;20034;-75
2022/09/22 01:56:27;;;;;;;11.68;5.47;;;7.00;99.90;;;;;;5007592;28;20027;-75
2022/09/22 01:58:57;;;;;;;6.78;4.82;;;7.00;99.90;;;;;;5013789;28;20038;-75
2022/09/22 02:01:32;;;;;;;11.77;4.72;;;6.90;99.90;;;;;;5008230;28;20030;-76
2022/09/22 02:04:25;;;;;;;9.25;5.05;;;7.00;99.90;;;;;;5010690;28;20041;-75
2022/09/22 02:07:05;;;;;;;7.33;4.13;;;7.00;99.90;;;;;;5010418;28;20080;-75
2022/09/22 02:09:33;;;;;;;9.05;4.25;;;6.90;99.90;;;;;;5006051;28;20372;-75
2022/09/22 02:12:00;;;;;;;7.60;4.00;;;6.90;99.90;;;;;;5011231;28;20366;-75
2022/09/22 02:14:26;;;;;;;8.88;5.13;;;6.90;99.90;;;;;;5007709;28;20133;-75
2022/09/22 02:16:53;;;;;;;8.00;4.85;;;6.90;99.90;;;;;;5013418;28;20018;-75
2022/09/22 02:19:32;;;;;;;6.20;4.60;;;6.90;99.90;;;;;;5009538;28;20026;-76
2022/09/22 02:21:59;;;;;;;10.13;4.72;;;6.90;99.90;;;;;;5004124;28;20033;-75
2022/09/22 02:24:36;;;;;;;8.75;4.65;;;6.80;99.90;;;;;;5004561;28;20018;-75
2022/09/22 02:27:12;;;;;;;9.07;4.57;;;6.80;99.90;;;;;;5003505;28;20032;-75
2022/09/22 02:29:42;;;;;;;6.53;4.47;;;6.80;99.90;;;;;;5001541;28;20060;-75
2022/09/22 02:32:12;;;;;;;7.03;4.60;;;6.80;99.90;;;;;;5004622;28;20110;-75
2022/09/22 02:34:39;;;;;;;7.97;4.78;;;6.80;99.90;;;;;;5008480;28;20034;-76
2022/09/22 02:37:20;;;;;;;10.18;4.60;;;6.70;99.90;;;;;;5022793;28;20036;-75
2022/09/22 02:40:16;;;;;;;9.68;5.25;;;6.80;99.90;;;;;;5005910;28;20176;-75
2022/09/22 02:42:51;;;;;;;7.63;4.43;;;6.80;99.90;;;;;;5011612;28;20018;-75
2022/09/22 02:45:18;;;;;;;9.82;4.80;;;6.70;99.90;;;;;;5002817;28;20034;-76
2022/09/22 02:47:56;;;;;;;11.18;4.63;;;6.60;99.90;;;;;;5006072;28;20056;-75
2022/09/22 02:50:25;;;;;;;9.43;4.82;;;6.70;99.90;;;;;;5006845;28;20108;-76
2022/09/22 02:52:52;;;;;;;8.10;4.20;;;6.60;99.90;;;;;;5014101;28;20096;-75
2022/09/22 02:55:18;;;;;;;9.23;5.15;;;6.60;99.90;;;;;;5008933;28;20104;-76
2022/09/22 02:57:43;;;;;;;6.70;3.78;;;6.60;99.90;;;;;;5008477;28;20433;-75
2022/09/22 03:00:09;;;;;;;9.25;4.60;;;6.60;99.90;;;;;;5003128;28;20038;-76
2022/09/22 03:02:35;;;;;;;4.85;3.92;;;6.60;99.90;;;;;;5009519;28;20088;-76
2022/09/22 03:05:02;;;;;;;8.18;4.07;;;6.50;99.90;;;;;;5002472;28;20441;-76
2022/09/22 03:07:27;;;;;;;7.05;3.63;;;6.50;99.90;;;;;;5005134;28;20045;-75
2022/09/22 03:09:53;;;;;;;6.22;3.70;;;6.50;99.90;;;;;;5007901;28;20385;-76
2022/09/22 03:12:18;;;;;;;7.75;3.75;;;6.50;99.90;;;;;;5011359;28;20517;-75
2022/09/22 03:14:44;;;;;;;8.20;4.00;;;6.50;99.90;;;;;;5005187;28;20154;-75
2022/09/22 03:17:09;;;;;;;7.93;3.90;;;6.50;99.90;;;;;;5007655;28;20033;-76
2022/09/22 03:19:35;;;;;;;6.78;4.45;;;6.50;99.90;;;;;;5005721;28;20045;-76
2022/09/22 03:22:01;;;;;;;6.78;4.00;;;6.50;99.90;;;;;;5005192;28;20390;-76
2022/09/22 03:24:26;;;;;;;7.35;4.10;;;6.50;99.90;;;;;;5012734;28;20037;-75
2022/09/22 03:26:52;;;;;;;5.80;4.22;;;6.50;99.90;;;;;;5010168;28;20028;-75
2022/09/22 03:29:17;;;;;;;7.47;3.15;;;6.40;99.90;;;;;;5008538;28;20046;-76
2022/09/22 03:31:43;;;;;;;6.05;3.00;;;6.40;99.90;;;;;;5009668;28;20084;-75
2022/09/22 03:34:09;;;;;;;10.32;3.70;;;6.40;99.90;;;;;;5005596;28;20046;-75
2022/09/22 03:36:34;;;;;;;12.13;3.20;;;6.40;99.90;;;;;;5008900;28;20112;-75
2022/09/22 03:39:00;;;;;;;7.55;3.53;;;6.40;99.90;;;;;;5003972;28;20061;-75
2022/09/22 03:41:26;;;;;;;8.43;4.18;;;6.40;99.90;;;;;;5008469;28;20401;-75
2022/09/22 03:43:51;;;;;;;7.13;4.10;;;6.40;99.90;;;;;;4998305;28;20668;-75
2022/09/22 03:46:17;;;;;;;8.13;3.63;;;6.40;99.90;;;;;;5005298;28;20030;-76
2022/09/22 03:48:42;;;;;;;6.38;3.05;;;6.40;99.90;;;;;;5009734;28;20030;-76
2022/09/22 03:51:08;;;;;;;4.20;2.15;;;6.30;99.90;;;;;;5010352;28;20030;-76
2022/09/22 03:53:35;;;;;;;4.78;2.10;;;6.30;99.90;;;;;;4999238;28;20470;-75
2022/09/22 03:56:09;;;;;;;4.90;2.45;;;6.30;99.90;;;;;;5008015;28;20030;-75
2022/09/22 03:58:36;;;;;;;3.05;1.83;;;6.30;99.90;;;;;;5006541;28;20044;-75
2022/09/22 04:01:03;;;;;;;3.65;2.20;;;6.20;99.90;;;;;;5006855;28;20022;-76
2022/09/22 04:03:29;;;;;;;5.20;2.30;;;6.10;99.90;;;;;;5008571;28;20030;-76
2022/09/22 04:05:55;;;;;;;5.00;2.13;;;6.10;99.90;;;;;;5006989;28;20041;-76
2022/09/22 04:08:21;;;;;;;6.85;2.90;;;6.10;99.90;;;;;;5006197;28;20136;-75
2022/09/22 04:10:47;;;;;;;4.60;2.67;;;6.10;99.90;;;;;;5000523;28;20157;-75
2022/09/22 04:13:13;;;;;;;4.30;2.35;;;6.10;99.90;;;;;;5006071;28;20737;-75
2022/09/22 04:15:40;;;;;;;5.15;2.65;;;6.10;99.90;;;;;;5005654;28;20064;-75
2022/09/22 04:18:05;;;;;;;10.32;3.10;;;6.10;99.90;;;;;;5007767;28;20149;-75
2022/09/22 04:20:31;;;;;;;4.43;2.83;;;6.00;99.90;;;;;;5008881;28;20021;-75
2022/09/22 04:22:57;;;;;;;6.43;3.33;;;6.00;99.90;;;;;;5007905;28;20489;-75
2022/09/22 04:25:22;;;;;;;5.53;2.72;;;6.00;99.90;;;;;;5013582;28;20037;-75
2022/09/22 04:27:48;;;;;;;4.43;2.72;;;6.00;99.90;;;;;;5009291;28;20075;-75
2022/09/22 04:30:14;;;;;;;4.57;2.90;;;6.00;99.90;;;;;;5005581;28;20132;-73
2022/09/22 04:32:40;;;;;;;4.82;3.22;;;6.00;99.90;;;;;;5002499;28;20032;-73
2022/09/22 04:35:06;;;;;;;5.38;3.40;;;6.00;99.90;;;;;;5009225;28;20053;-73
2022/09/22 04:37:31;;;;;;;4.65;2.72;;;6.00;99.90;;;;;;5004547;28;20032;-73
2022/09/22 04:39:58;;;;;;;7.68;3.75;;;6.00;99.90;;;;;;5004104;28;20030;-73
2022/09/22 04:42:24;;;;;;;6.70;4.93;;;5.90;99.90;;;;;;5002110;28;20132;-74
2022/09/22 04:44:50;;;;;;;7.03;4.70;;;6.00;99.90;;;;;;5009670;28;20026;-74
2022/09/22 04:47:16;;;;;;;8.20;5.03;;;5.90;99.90;;;;;;5009849;28;20419;-74
2022/09/22 04:49:41;;;;;;;7.65;5.43;;;6.00;99.90;;;;;;4996365;28;21727;-73
2022/09/22 04:52:07;;;;;;;7.00;5.20;;;6.00;99.90;;;;;;5002822;28;20037;-73
2022/09/22 04:54:32;;;;;;;4.68;3.58;;;6.00;99.90;;;;;;5000944;28;20040;-74
2022/09/22 04:56:58;;;;;;;4.50;3.45;;;6.00;99.90;;;;;;5002851;28;20033;-74
2022/09/22 04:59:23;;;;;;;6.55;4.63;;;6.00;99.90;;;;;;5009731;28;20112;-74
2022/09/22 05:01:49;;;;;;;7.15;5.50;;;5.90;99.90;;;;;;5011233;28;20108;-74
2022/09/22 05:04:14;;;;;;;6.93;4.88;;;5.90;99.90;;;;;;5008835;28;20108;-74
2022/09/22 05:06:41;;;;;;;6.53;3.53;;;6.00;99.90;;;;;;5009187;28;20033;-74
2022/09/22 05:09:06;;;;;;;6.25;4.57;;;5.90;99.90;;;;;;5011059;28;20026;-74
2022/09/22 05:11:32;;;;;;;6.20;4.95;;;5.90;99.90;;;;;;5011131;28;20018;-74
2022/09/22 05:13:57;;;;;;;5.75;3.70;;;5.90;99.90;;;;;;5006777;28;20038;-74
2022/09/22 05:16:24;;;;;;;4.95;3.72;;;5.90;99.90;;;;;;5003194;28;20025;-74
2022/09/22 05:18:50;;;;;;;5.45;3.63;;;5.90;99.90;;;;;;5005479;28;20454;-74
2022/09/22 05:21:17;;;;;;;6.65;4.10;;;5.80;99.90;;;;;;5005816;28;20108;-74
2022/09/22 05:23:44;;;;;;;5.47;3.88;;;5.80;99.90;;;;;;5003776;28;20033;-75
2022/09/22 05:26:09;;;;;;;7.90;4.20;;;5.80;99.90;;;;;;5004363;28;20488;-75
2022/09/22 05:28:35;;;;;;;5.03;3.75;;;5.80;99.90;;;;;;5003430;28;20026;-74
2022/09/22 05:31:01;;;;;;;6.30;4.30;;;5.80;99.90;;;;;;4999391;28;20168;-74
2022/09/22 05:33:27;;;;;;;5.63;3.72;;;5.70;99.90;;;;;;5000426;28;20033;-74
2022/09/22 05:35:52;;;;;;;6.40;3.75;;;5.80;99.90;;;;;;5003394;28;20026;-74
2022/09/22 05:38:18;;;;;;;7.05;3.70;;;5.80;99.90;;;;;;5010543;28;20026;-74
2022/09/22 05:40:46;;;;;;;8.52;4.38;;;5.70;99.90;;;;;;5013408;28;20030;-75
2022/09/22 05:43:11;;;;;;;7.95;4.95;;;5.70;99.90;;;;;;5012425;28;20030;-75
2022/09/22 05:45:37;;;;;;;7.25;4.88;;;5.70;99.90;;;;;;5010420;28;20034;-75
2022/09/22 05:48:03;;;;;;;6.57;4.10;;;5.80;99.90;;;;;;5005070;28;20486;-74
2022/09/22 05:50:29;;;;;;;8.75;4.18;;;5.80;99.90;;;;;;5003385;28;20022;-73
2022/09/22 05:53:07;;;;;;;8.40;4.53;;;5.80;99.90;;;;;;5011053;28;20026;-73
2022/09/22 05:55:33;;;;;;;7.55;4.75;;;5.90;99.90;;;;;;5006436;28;20799;-73
2022/09/22 05:57:59;;;;;;;7.63;5.32;;;5.90;99.90;;;;;;5004983;28;20022;-74
2022/09/22 06:00:26;;;;;;;9.05;6.25;;;5.90;99.90;;;;;;5008684;28;20173;-75
2022/09/22 06:02:52;;;;;;;7.80;5.93;;;5.90;99.90;;;;;;5010193;28;20037;-74
2022/09/22 06:05:17;;;;;;;8.60;6.20;;;6.00;99.90;;;;;;5010026;28;20029;-74
2022/09/22 06:07:43;;;;;;;12.13;7.03;;;6.00;99.90;;;;;;5002714;28;20087;-74
2022/09/22 06:10:12;;;;;;;12.82;7.22;;;6.00;99.90;;;;;;5010841;28;20375;-74
2022/09/22 06:12:38;;;;;;;10.88;7.40;;;6.10;99.90;;;;;;5007306;28;20476;-74
2022/09/22 06:15:04;;;;;;;12.18;8.05;;;6.10;99.90;;;;;;4999238;28;20397;-74
2022/09/22 06:17:30;;;;;;;13.15;9.02;;;6.20;99.90;;;;;;4997159;28;20416;-75
2022/09/22 06:19:57;;;;;;;14.27;10.30;;;6.20;99.90;;;;;;4993512;28;21313;-77
2022/09/22 06:22:23;;;;;;;15.13;10.27;;;6.30;99.90;;;;;;5007961;28;20032;-74
2022/09/22 06:24:49;;;;;;;17.05;11.50;;;6.40;99.90;;;;;;5010275;28;20473;-75
2022/09/22 06:27:15;;;;;;;21.05;12.30;;;6.40;99.90;;;;;;5007367;28;20032;-75
2022/09/22 06:29:41;;;;;;;21.10;12.35;;;6.50;99.90;;;;;;5008661;28;20050;-76
2022/09/22 06:32:09;;;;;;;14.93;11.70;;;6.60;99.90;;;;;;5003723;28;20029;-75
2022/09/22 06:34:36;;;;;;;17.27;11.70;;;6.70;99.90;;;;;;5001207;28;20042;-74
2022/09/22 06:37:03;;;;;;;17.50;11.35;;;6.80;99.90;;;;;;5002585;28;20062;-75
2022/09/22 06:39:28;;;;;;;15.15;10.90;;;6.90;99.90;;;;;;5003600;28;20040;-74
2022/09/22 06:41:55;;;;;;;18.65;13.00;;;7.00;99.90;;;;;;5004855;28;20030;-75
2022/09/22 06:44:21;;;;;;;15.85;11.15;;;7.10;99.90;;;;;;5010279;28;20030;-76
2022/09/22 06:46:47;;;;;;;18.23;11.65;;;7.20;99.90;;;;;;5008990;28;20128;-75
2022/09/22 06:49:12;;;;;;;15.05;11.40;;;7.30;99.90;;;;;;5003658;28;20030;-76
2022/09/22 06:51:38;;;;;;;21.45;13.93;;;7.50;99.90;;;;;;5005424;28;20098;-75
2022/09/22 06:54:05;;;;;;;15.88;12.93;;;7.60;99.90;;;;;;5007145;28;20132;-76
2022/09/22 06:56:36;;;;;;;22.17;14.38;;;7.70;99.90;;;;;;5004021;28;20317;-73
2022/09/22 06:59:10;;;;;;;22.20;15.65;;;7.90;99.90;;;;;;5006515;28;20551;-76
2022/09/22 07:01:36;;;;;;;19.00;14.32;;;8.00;99.90;;;;;;5006572;28;20497;-75
2022/09/22 07:04:01;;;;;;;20.58;15.30;;;8.20;99.90;;;;;;5004976;28;20030;-75
2022/09/22 07:06:27;;;;;;;21.42;15.52;;;8.30;99.90;;;;;;5008227;28;20025;-74
2022/09/22 07:08:52;;;;;;;25.17;17.27;;;8.50;99.90;;;;;;5005208;28;20025;-76
2022/09/22 07:11:22;;;;;;;20.50;15.65;;;8.70;99.90;;;;;;5002326;28;20088;-76
2022/09/22 07:13:50;;;;;;;25.45;17.55;;;8.80;99.90;;;;;;5003764;28;20030;-74
2022/09/22 07:16:17;;;;;;;22.95;17.15;;;9.00;99.90;;;;;;5001432;28;20030;-75
2022/09/22 07:18:48;;;;;;;24.83;16.85;;;9.10;99.90;;;;;;5002247;28;20044;-75
2022/09/22 07:21:19;;;;;;;20.90;16.08;;;9.30;99.90;;;;;;5003066;28;20117;-74
2022/09/22 07:23:48;;;;;;;21.43;15.33;;;9.50;99.90;;;;;;5005254;28;20034;-76
2022/09/22 07:26:16;;;;;;;19.65;15.40;;;9.60;99.90;;;;;;5002321;28;20030;-76
2022/09/22 07:28:42;;;;;;;22.75;15.20;;;9.80;99.90;;;;;;5003127;28;20065;-76
2022/09/22 07:31:10;;;;;;;20.25;14.20;;;9.90;99.90;;;;;;5011181;28;20046;-75
2022/09/22 07:33:38;;;;;;;21.08;14.10;;;10.10;99.90;;;;;;4997620;28;20069;-76
2022/09/22 07:36:09;;;;;;;19.42;14.18;;;10.20;99.90;;;;;;4998723;28;20179;-76
2022/09/22 07:38:39;;;;;;;17.20;13.48;;;10.30;99.90;;;;;;5006943;28;20076;-75
2022/09/22 07:41:08;;;;;;;18.50;12.77;;;10.50;99.90;;;;;;5024538;28;20030;-75
2022/09/22 07:43:34;;;;;;;18.08;13.15;;;10.60;99.90;;;;;;5008241;28;20132;-74
2022/09/22 07:46:00;;;;;;;16.15;12.20;;;10.70;99.90;;;;;;5007892;28;20394;-74
2022/09/22 07:48:40;;;;;;;20.73;13.23;;;10.90;99.90;;;;;;5003762;28;20026;-75
2022/09/22 07:51:11;;;;;;;18.55;13.02;;;11.00;99.90;;;;;;5000544;28;20099;-75
2022/09/22 07:53:39;;;;;;;16.30;12.23;;;11.10;99.90;;;;;;5002081;28;20109;-74
2022/09/22 07:56:07;;;;;;;24.38;13.30;;;11.20;99.90;;;;;;5002498;28;20048;-76
2022/09/22 07:58:32;;;;;;;16.73;12.63;;;11.30;99.90;;;;;;4994618;28;20087;-77
2022/09/22 08:01:04;;;;;;;16.58;12.50;;;11.50;99.90;;;;;;5003263;28;20729;-77
2022/09/22 08:03:30;;;;;;;19.23;12.87;;;11.60;99.90;;;;;;4999924;28;20113;-74
2022/09/22 08:06:09;;;;;;;16.08;11.77;;;11.70;99.90;;;;;;4995120;28;20037;-74
2022/09/22 08:08:35;;;;;;;18.48;11.18;;;11.80;99.90;;;;;;5001635;28;20025;-74
2022/09/22 08:11:05;;;;;;;19.08;11.32;;;12.00;99.90;;;;;;4997720;28;20033;-74
2022/09/22 08:13:33;;;;;;;15.77;10.15;;;12.10;99.90;;;;;;4997699;28;20057;-75
2022/09/22 08:16:02;;;;;;;21.30;11.85;;;12.20;99.90;;;;;;4999608;28;20418;-75
2022/09/22 08:18:28;;;;;;;16.83;10.77;;;12.30;99.90;;;;;;4997716;28;20442;-76
2022/09/22 08:20:53;;;;;;;19.80;10.57;;;12.40;99.90;;;;;;5015092;28;20116;-75
2022/09/22 08:23:19;;;;;;;13.93;9.27;;;12.50;99.90;;;;;;5001358;28;20037;-75
2022/09/22 08:25:44;;;;;;;18.67;9.10;;;12.70;99.90;;;;;;4995736;28;20119;-75
2022/09/22 08:28:10;;;;;;;18.23;9.38;;;12.80;99.90;;;;;;5001792;28;20685;-76
2022/09/22 08:30:38;;;;;;;12.07;7.85;;;12.90;99.90;;;;;;5011639;28;20041;-76
2022/09/22 08:33:03;;;;;;;13.80;7.60;;;13.00;99.90;;;;;;5002266;28;20083;-75
2022/09/22 08:35:29;;;;;;;12.55;7.63;;;13.10;99.90;;;;;;5003302;28;20037;-75
2022/09/22 08:37:54;;;;;;;16.80;8.05;;;13.20;99.90;;;;;;4999148;28;20124;-75
2022/09/22 08:40:22;;;;;;;14.68;8.10;;;13.30;99.90;;;;;;5005537;28;20026;-75
2022/09/22 08:42:53;;;;;;;18.88;8.00;;;13.40;99.90;;;;;;5004684;28;20021;-75
2022/09/22 08:45:37;;;;;;;12.90;7.75;;;13.50;99.90;;;;;;5000858;28;20439;-76
2022/09/22 08:53:50;;;;;;;14.02;6.32;;;13.90;99.90;;;;;;5006011;28;20056;-76
2022/09/22 08:56:28;;;;;;;15.15;7.30;;;14.00;99.90;;;;;;5003716;28;20484;-75
2022/09/22 08:59:08;;;;;;;9.27;6.05;;;14.20;99.90;;;;;;5005855;28;20038;-75
2022/09/22 09:01:55;;;;;;;8.70;6.15;;;14.30;99.90;;;;;;5000412;28;20033;-75
2022/09/22 09:04:56;;;;;;;11.50;6.93;;;14.50;99.90;;;;;;5001352;28;20083;-75
2022/09/22 09:07:42;;;;;;;9.63;7.05;;;14.60;99.90;;;;;;5004492;28;20112;-74
2022/09/22 09:10:31;;;;;;;10.52;7.00;;;14.70;99.90;;;;;;4998870;28;20203;-76
2022/09/22 09:13:22;;;;;;;12.10;7.13;;;14.70;99.90;;;;;;4999616;28;20401;-76
2022/09/22 09:16:17;;;;;;;14.88;8.07;;;14.80;99.90;;;;;;5004273;28;20520;-76
2022/09/22 09:21:22;;;;;;;12.43;7.63;;;15.00;99.90;;;;;;5110802;22;20062;-76
2022/09/22 09:23:53;;;;;;;12.57;7.63;;;15.10;99.90;;;;;;4988521;28;20046;-77
2022/09/22 09:26:19;;;;;;;9.88;6.95;;;15.20;99.90;;;;;;4988137;28;20057;-76
2022/09/22 09:28:59;;;;;;;13.43;6.03;;;15.20;99.90;;;;;;4986351;28;20045;-77
2022/09/22 09:31:37;;;;;;;9.93;5.00;;;15.40;99.90;;;;;;4988244;28;20034;-76
2022/09/22 09:34:13;;;;;;;12.30;6.00;;;15.40;99.90;;;;;;4985890;28;20517;-77
2022/09/22 09:36:42;;;;;;;11.25;6.38;;;15.50;99.90;;;;;;4986731;28;20036;-77
2022/09/22 09:39:19;;;;;;;10.13;5.75;;;15.50;99.90;;;;;;4984621;28;20038;-75
2022/09/22 09:41:47;;;;;;;9.95;5.57;;;15.60;99.90;;;;;;4986037;28;20511;-75
2022/09/22 09:44:24;;;;;;;9.05;6.05;;;15.70;99.90;;;;;;4990715;28;20058;-77
2022/09/22 09:47:10;;;;;;;10.77;6.38;;;15.80;99.90;;;;;;4992828;28;20033;-77
2022/09/22 09:49:36;;;;;;;10.18;6.25;;;15.90;99.90;;;;;;4990312;28;20053;-76
2022/09/22 09:52:08;;;;;;;9.73;6.05;;;15.90;99.90;;;;;;4987299;28;20152;-76
2022/09/22 09:54:36;;;;;;;13.23;7.00;;;16.00;99.90;;;;;;4988008;28;20034;-75
2022/09/22 09:57:15;;;;;;;12.43;6.97;;;16.00;99.90;;;;;;4993237;28;20113;-75
2022/09/22 10:00:35;;;;;;;13.82;7.07;;;16.10;99.90;;;;;;4979519;28;20022;-76
2022/09/22 10:03:14;;;;;;;9.98;7.13;;;16.20;99.90;;;;;;4972995;28;20130;-76
2022/09/22 10:05:42;;;;;;;12.50;7.38;;;16.30;99.90;;;;;;4971964;28;20114;-76
2022/09/22 10:08:19;;;;;;;11.57;7.13;;;16.30;99.90;;;;;;4968381;28;20426;-75
2022/09/22 10:10:46;;;;;;;11.20;7.65;;;16.40;99.90;;;;;;4971818;28;20121;-77
2022/09/22 10:13:12;;;;;;;12.45;7.45;;;16.40;99.90;;;;;;4975965;28;20023;-75
2022/09/22 10:15:39;;;;;;;12.60;8.50;;;16.50;99.90;;;;;;4968820;28;20387;-77
2022/09/22 10:18:43;;;;;;;9.48;6.50;;;16.50;99.90;;;;;;4972520;28;20101;-77
2022/09/22 10:21:21;;;;;;;10.18;7.65;;;16.60;99.90;;;;;;4970433;28;20430;-76
2022/09/22 10:23:55;;;;;;;9.15;6.93;;;16.60;99.90;;;;;;4969729;28;20035;-76
2022/09/22 10:26:27;;;;;;;9.07;7.35;;;16.70;99.90;;;;;;4971354;28;20078;-76
2022/09/22 10:29:17;;;;;;;13.85;8.68;;;16.80;99.90;;;;;;4972370;28;20117;-75
2022/09/22 10:32:13;;;;;;;9.43;7.28;;;16.90;99.90;;;;;;4970284;28;20031;-74
2022/09/22 10:34:43;;;;;;;10.05;6.90;;;17.10;99.90;;;;;;4972426;28;20137;-74
2022/09/22 10:37:12;;;;;;;10.73;6.90;;;17.10;99.90;;;;;;4973643;28;20483;-75
2022/09/22 10:39:47;;;;;;;9.50;7.20;;;17.20;99.90;;;;;;4984679;28;20390;-75
2022/09/22 10:42:35;;;;;;;9.32;6.57;;;17.30;99.90;;;;;;4969767;28;20282;-75
2022/09/22 10:45:11;;;;;;;10.65;5.55;;;17.40;99.90;;;;;;4971258;28;20034;-75
2022/09/22 10:47:54;;;;;;;9.55;6.07;;;17.40;99.90;;;;;;4969898;28;20023;-75
2022/09/22 10:50:55;;;;;;;9.15;6.38;;;17.60;99.70;;;;;;4978510;28;20125;-74
2022/09/22 10:53:58;;;;;;;8.23;5.40;;;17.70;99.20;;;;;;4969505;28;20030;-75
2022/09/22 10:56:38;;;;;;;6.13;4.00;;;17.70;98.90;;;;;;4925434;29;20035;-76
2022/09/22 10:59:22;;;;;;;5.55;3.55;;;17.70;98.40;;;;;;4926305;29;20032;-77
2022/09/22 11:02:15;;;;;;;4.80;3.22;;;17.80;97.50;;;;;;4954288;28;20058;-76
2022/09/22 11:05:07;;;;;;;4.20;2.00;;;17.90;97.30;;;;;;4968595;28;20030;-76
2022/09/22 11:14:21;;;;;;;6.32;3.67;;;18.10;96.80;;;;;;4973252;28;19926;-75
2022/09/22 11:17:11;;;;;;;4.82;3.03;;;18.20;96.50;;;;;;4971381;28;20037;-76
2022/09/22 11:19:57;;;;;;;4.35;2.97;;;18.20;95.80;;;;;;4966177;28;20550;-77
2022/09/22 11:22:42;;;;;;;5.28;3.05;;;18.30;95.10;;;;;;4972007;28;20058;-76
2022/09/22 11:25:39;;;;;;;4.45;2.40;;;18.40;95.20;;;;;;4972214;28;20055;-77
2022/09/22 11:28:43;;;;;;;3.72;2.40;;;18.40;94.80;;;;;;4965767;28;20035;-75
2022/09/22 11:31:36;;;;;;;4.20;1.60;;;18.50;94.40;;;;;;4969473;28;20030;-76
2022/09/22 11:34:34;;;;;;;4.15;1.83;;;18.60;93.60;;;;;;4965005;28;20564;-76
2022/09/22 11:37:39;;;;;;;3.58;1.48;;;18.60;93.50;;;;;;4969434;28;20549;-75
2022/09/22 11:40:26;;;;;;;3.90;1.30;;;18.70;93.20;;;;;;4951334;28;20039;-76
2022/09/22 11:43:06;;;;;;;4.00;1.52;;;18.80;92.70;;;;;;4963706;28;20027;-75
2022/09/22 11:45:58;;;;;;;2.85;1.02;;;18.80;92.00;;;;;;4970400;28;20050;-75
2022/09/22 11:48:49;;;;;;;2.95;1.25;;;18.80;91.60;;;;;;4976493;28;20126;-74
2022/09/22 11:51:39;;;;;;;2.53;1.23;;;18.90;91.20;;;;;;4972689;28;20382;-75
2022/09/22 11:54:17;;;;;;;3.08;0.98;;;19.00;91.10;;;;;;4970727;28;20629;-75
2022/09/22 11:56:48;;;;;;;6.40;0.90;;;19.20;90.50;;;;;;4966777;28;20034;-75
2022/09/22 11:59:29;;;;;;;3.67;0.80;;;19.30;90.20;;;;;;4983112;28;20085;-75
2022/09/22 12:01:58;;;;;;;1.90;0.50;;;19.40;88.90;;;;;;4963795;28;20038;-75
2022/09/22 12:04:50;;;;;;;2.47;0.88;;;19.40;87.80;;;;;;4967650;28;20038;-76
2022/09/22 12:07:31;;;;;;;2.10;0.85;;;19.40;87.30;;;;;;4969352;28;20105;-75
2022/09/22 12:10:02;;;;;;;2.75;1.00;;;19.50;86.70;;;;;;4969454;28;20399;-74
2022/09/22 12:12:31;;;;;;;4.20;1.10;;;19.60;85.80;;;;;;4965274;28;20114;-75
2022/09/22 12:15:07;;;;;;;3.42;1.10;;;19.60;85.20;;;;;;4978413;28;20038;-75
2022/09/22 12:18:00;;;;;;;2.83;1.00;;;19.60;84.10;;;;;;4971210;28;20015;-76
2022/09/22 12:20:51;;;;;;;2.90;0.85;;;19.60;83.70;;;;;;4963231;28;20051;-75
2022/09/22 12:23:42;;;;;;;3.70;1.38;;;19.50;83.40;;;;;;4967693;28;20034;-76
2022/09/22 12:26:10;;;;;;;3.55;0.70;;;19.50;82.70;;;;;;4967183;28;20386;-76
2022/09/22 12:28:40;;;;;;;2.38;0.65;;;19.60;83.40;;;;;;4964942;28;20027;-76
2022/09/22 12:31:14;;;;;;;3.13;0.75;;;19.60;82.30;;;;;;4966665;28;20035;-75
2022/09/22 12:33:51;;;;;;;2.85;0.60;;;19.70;81.30;;;;;;4965951;28;20066;-75
2022/09/22 12:36:37;;;;;;;2.45;0.60;;;19.80;80.70;;;;;;4964700;28;20031;-75
2022/09/22 12:39:31;;;;;;;1.77;0.57;;;19.80;80.40;;;;;;4968281;28;20553;-74
2022/09/22 12:42:15;;;;;;;3.15;0.85;;;19.90;79.90;;;;;;4977966;28;20041;-75
2022/09/22 12:44:53;;;;;;;10.10;1.35;;;19.90;80.40;;;;;;4982451;28;20043;-75
2022/09/22 12:47:22;;;;;;;5.45;0.90;;;20.00;80.00;;;;;;4958236;28;20182;-74
2022/09/22 12:49:52;;;;;;;5.53;0.85;;;20.00;79.70;;;;;;4981687;28;20113;-75
2022/09/22 12:52:40;;;;;;;3.90;1.10;;;20.10;78.50;;;;;;4965794;28;20454;-74
2022/09/22 12:55:19;;;;;;;4.05;0.70;;;20.10;77.10;;;;;;4968547;28;20054;-76
2022/09/22 12:57:49;;;;;;;2.65;0.50;;;20.10;77.00;;;;;;4982626;28;20108;-76
2022/09/22 13:00:36;;;;;;;4.97;0.60;;;20.20;77.20;;;;;;4966038;28;20027;-76
2022/09/22 13:03:23;;;;;;;3.60;0.73;;;20.20;76.20;;;;;;4969024;28;20038;-75
2022/09/22 13:06:02;;;;;;;2.17;0.70;;;20.30;75.20;;;;;;4964744;28;20088;-75
2022/09/22 13:08:40;;;;;;;1.90;0.50;;;20.30;75.60;;;;;;4984137;28;20407;-75
2022/09/22 13:11:08;;;;;;;2.08;0.70;;;20.20;75.70;;;;;;4985749;28;20031;-75
2022/09/22 13:13:38;;;;;;;2.33;0.70;;;20.20;75.00;;;;;;4983200;28;20035;-75
2022/09/22 13:16:36;;;;;;;3.10;0.63;;;20.30;75.10;;;;;;4971650;28;20042;-75
2022/09/22 13:19:03;;;;;;;1.73;0.55;;;20.40;74.90;;;;;;4971664;28;20027;-75
2022/09/22 13:21:31;;;;;;;2.05;0.65;;;20.50;75.00;;;;;;4962137;28;20528;-75
2022/09/22 13:24:01;;;;;;;3.13;0.90;;;20.60;74.10;;;;;;4968992;28;20061;-75
2022/09/22 13:26:35;;;;;;;3.13;1.02;;;20.70;74.20;;;;;;4971326;28;20090;-75
2022/09/22 13:29:05;;;;;;;2.47;0.70;;;20.70;72.90;;;;;;4970227;28;20038;-76
2022/09/22 13:31:49;;;;;;;4.47;0.93;;;20.70;73.20;;;;;;4969858;28;20035;-76